King City, Missouri
Current Conditions -  °F | °C
As of 1:53 AM on Thursday 29 Jan 2015 (Local Time) from KSTJ Reporting Station
Overcast Overcast  
Wind Chill: 36°   Ceiling: 2300
Heat Index: 45°   Visibility: 10mi
Dew Point: 36°   Wind: 26mph
Humidity: 71%   Direction: 350°N
Pressure: 29.98"   Gusts: 39mph
Location:  40.05°N, 94.52°W
Report Text: KSTJ 290753Z AUTO 35023G34KT 10SM OVC023 07/02 A2998 RMK AO2 PK WND 35034/0744 SLP150 T00720022 $
Loading
Personal Weather Stations






























Interactive Weather Map New forecast layout! Learn more

10-Day Weather Forecast

Advertisements
Track Severe Weather on mobile